Terminal Aerodrome Forecast
Issued by NWS Sterling, VA

Current Version | Previous Version | Graphics & Text | Print | Product List | Glossary On
Versions: 1 2 3 4 5 6 7 8 9 10 11 12 13 14 15 16 17 18 19 20 21 22 23
000
FTUS41 KLWX 050541
TAFMRB
TAF
KMRB 050541Z 0506/0606 32006KT 5SM -RA BR SCT012 OVC060
     FM050800 34008KT 1SM -SNPL OVC015
     FM051100 34008KT 3/4SM -SN OVC006
     FM051800 34010G15KT 2SM -SN OVC010
     FM052200 34009KT P6SM OVC015
     FM060300 32008KT P6SM SCT050=

USA.gov is the U.S. government's official web portal to all federal, state and local government web resources and services.